Time;durP1;ratioP1;P1;durP2;ratioP2;P2;SDS_P1;SDS_P2;PMS_P1;PMS_P2;Temp;Humidity;BMP_temperature;BMP_pressure;BME280_temperature;BME280_humidity;BME280_pressure;Samples;Min_cycle;Max_cycle;Signal;HPM_P1;HPM_P2
2024/02/22 00:02:19;;;;;;;1.87;1.77;;;9.10;99.90;;;;;;5060556;28;20206;-64
2024/02/22 00:04:46;;;;;;;1.83;1.58;;;9.00;99.90;;;;;;5060650;28;20491;-64
2024/02/22 00:07:15;;;;;;;1.60;1.50;;;9.00;99.90;;;;;;5053451;28;20218;-63
2024/02/22 00:09:42;;;;;;;2.05;1.83;;;8.90;99.90;;;;;;5051413;28;20214;-63
2024/02/22 00:12:11;;;;;;;3.35;2.30;;;8.90;99.90;;;;;;5054816;28;20211;-63
2024/02/22 00:14:39;;;;;;;2.33;2.17;;;8.80;99.90;;;;;;5060741;28;20210;-63
2024/02/22 00:17:07;;;;;;;2.40;2.20;;;8.80;99.90;;;;;;5062201;28;20216;-63
2024/02/22 00:19:34;;;;;;;2.08;1.95;;;8.80;99.90;;;;;;5061733;28;20202;-63
2024/02/22 00:22:01;;;;;;;2.03;1.83;;;8.80;99.90;;;;;;5057308;28;20279;-63
2024/02/22 00:24:28;;;;;;;2.65;2.10;;;8.80;99.90;;;;;;5059306;28;20221;-63
2024/02/22 00:26:55;;;;;;;1.95;1.77;;;8.80;99.90;;;;;;5056342;28;20238;-63
2024/02/22 00:29:23;;;;;;;2.08;1.90;;;8.70;99.90;;;;;;5056463;28;20662;-63
2024/02/22 00:31:50;;;;;;;2.80;2.60;;;8.70;99.90;;;;;;5052566;28;20214;-63
2024/02/22 00:34:17;;;;;;;2.25;2.10;;;8.70;99.90;;;;;;5058607;28;20210;-63
2024/02/22 00:36:44;;;;;;;3.05;2.08;;;8.70;99.90;;;;;;5056474;28;20233;-63
2024/02/22 00:39:11;;;;;;;2.67;2.47;;;8.70;99.90;;;;;;5054772;28;20226;-63
2024/02/22 00:41:38;;;;;;;2.50;2.30;;;8.70;99.90;;;;;;5058457;28;20210;-63
2024/02/22 00:44:07;;;;;;;2.95;2.65;;;8.70;99.90;;;;;;5055328;28;20298;-63
2024/02/22 00:46:36;;;;;;;3.05;2.35;;;8.70;99.90;;;;;;5060125;28;20236;-63
2024/02/22 00:49:02;;;;;;;3.55;3.25;;;8.70;99.90;;;;;;5057519;28;20646;-63
2024/02/22 00:51:29;;;;;;;3.67;3.38;;;8.60;99.90;;;;;;5058229;28;20206;-63
2024/02/22 00:53:56;;;;;;;3.75;2.83;;;8.70;99.90;;;;;;5059136;28;20297;-63
2024/02/22 00:56:23;;;;;;;2.63;2.42;;;8.70;99.90;;;;;;5055664;28;20230;-62
2024/02/22 00:58:50;;;;;;;2.63;2.43;;;8.70;99.90;;;;;;5057109;28;20712;-62
2024/02/22 01:01:17;;;;;;;2.65;2.50;;;8.70;99.90;;;;;;5056795;28;20451;-62
2024/02/22 01:03:45;;;;;;;3.00;2.77;;;8.70;99.90;;;;;;5052973;28;20207;-63
2024/02/22 01:06:13;;;;;;;3.88;3.58;;;8.60;99.90;;;;;;5058338;28;20522;-62
2024/02/22 01:08:40;;;;;;;2.65;2.20;;;8.60;99.90;;;;;;5055100;28;20218;-62
2024/02/22 01:11:07;;;;;;;3.37;3.10;;;8.60;99.90;;;;;;5052467;28;20584;-63
2024/02/22 01:13:34;;;;;;;3.10;2.87;;;8.60;99.90;;;;;;5056470;28;21051;-63
2024/02/22 01:16:01;;;;;;;5.90;2.50;;;8.70;99.90;;;;;;5053946;28;20464;-63
2024/02/22 01:18:28;;;;;;;2.50;2.30;;;8.60;99.90;;;;;;5058103;28;20295;-63
2024/02/22 01:20:56;;;;;;;3.60;3.40;;;8.60;99.90;;;;;;5055975;28;20453;-62
2024/02/22 01:23:23;;;;;;;2.60;2.40;;;8.60;99.90;;;;;;5060117;28;20695;-62
2024/02/22 01:25:50;;;;;;;3.97;3.30;;;8.60;99.90;;;;;;5053693;28;20492;-63
2024/02/22 01:28:17;;;;;;;5.60;2.90;;;8.70;99.90;;;;;;5058751;28;20206;-63
2024/02/22 01:30:43;;;;;;;3.25;2.45;;;8.60;99.90;;;;;;5054490;28;20974;-63
2024/02/22 01:33:12;;;;;;;2.90;2.60;;;8.70;99.90;;;;;;5051300;28;20216;-62
2024/02/22 01:35:39;;;;;;;4.68;2.53;;;8.60;99.90;;;;;;5057299;28;20560;-62
2024/02/22 01:38:07;;;;;;;3.08;2.80;;;8.70;99.90;;;;;;5054420;28;20259;-62
2024/02/22 01:40:34;;;;;;;3.78;2.90;;;8.60;99.90;;;;;;5057356;28;20209;-63
2024/02/22 01:43:01;;;;;;;2.80;2.60;;;8.60;99.90;;;;;;5052979;28;20826;-62
2024/02/22 01:45:28;;;;;;;6.70;2.53;;;8.60;99.90;;;;;;5059255;28;20895;-62
2024/02/22 01:47:55;;;;;;;2.80;2.60;;;8.60;99.90;;;;;;5055023;28;20239;-62
2024/02/22 01:50:22;;;;;;;3.10;2.90;;;8.60;99.90;;;;;;5057035;28;20449;-63
2024/02/22 01:52:49;;;;;;;2.80;2.60;;;8.60;99.90;;;;;;5051709;28;20216;-63
2024/02/22 01:55:20;;;;;;;3.70;3.13;;;8.60;99.90;;;;;;5056006;28;20252;-62
2024/02/22 01:57:49;;;;;;;4.57;2.78;;;8.60;99.90;;;;;;5060172;28;20213;-62
2024/02/22 02:00:17;;;;;;;7.03;3.60;;;8.60;99.90;;;;;;5064774;28;20292;-63
2024/02/22 02:02:44;;;;;;;3.00;2.80;;;8.60;99.90;;;;;;5067905;28;20459;-62
2024/02/22 02:05:11;;;;;;;3.38;3.08;;;8.60;99.90;;;;;;5067468;28;20221;-62
2024/02/22 02:07:40;;;;;;;2.88;2.40;;;8.60;99.90;;;;;;5068603;28;20201;-62
2024/02/22 02:10:09;;;;;;;4.50;2.40;;;8.60;99.90;;;;;;5067612;28;20202;-62
2024/02/22 02:12:38;;;;;;;4.03;3.15;;;8.60;99.90;;;;;;5066151;28;20430;-62
2024/02/22 02:15:06;;;;;;;3.22;2.92;;;8.60;99.90;;;;;;5066850;28;20233;-62
2024/02/22 02:17:33;;;;;;;4.10;3.47;;;8.70;99.90;;;;;;5067347;28;20216;-63
2024/02/22 02:20:05;;;;;;;2.85;2.58;;;8.60;99.90;;;;;;5068603;28;20628;-62
2024/02/22 02:22:49;;;;;;;2.97;2.63;;;8.70;99.90;;;;;;5068552;28;20209;-63
2024/02/22 02:25:18;;;;;;;6.65;3.30;;;8.60;99.90;;;;;;5069328;28;20491;-62
2024/02/22 02:27:45;;;;;;;2.73;2.37;;;8.70;99.90;;;;;;5069084;28;20224;-62
2024/02/22 02:30:13;;;;;;;4.03;2.75;;;8.60;99.90;;;;;;5067253;28;20546;-63
2024/02/22 02:32:40;;;;;;;2.80;2.70;;;8.70;99.90;;;;;;5047162;28;20214;-63
2024/02/22 02:35:07;;;;;;;3.20;2.97;;;8.60;99.90;;;;;;5048050;28;20233;-63
2024/02/22 02:37:34;;;;;;;3.70;3.13;;;8.60;99.90;;;;;;5047693;28;20454;-63
2024/02/22 02:40:01;;;;;;;3.15;2.78;;;8.70;99.90;;;;;;5048296;28;20214;-63
2024/02/22 02:42:29;;;;;;;3.83;2.97;;;8.70;99.90;;;;;;5048116;28;20271;-62
2024/02/22 02:44:56;;;;;;;3.33;2.30;;;8.70;99.90;;;;;;5048334;28;20784;-62
2024/02/22 02:47:23;;;;;;;3.43;3.13;;;8.70;99.90;;;;;;5048372;28;20453;-63
2024/02/22 02:49:50;;;;;;;3.20;3.00;;;8.70;99.90;;;;;;5048204;28;20447;-63
2024/02/22 02:52:16;;;;;;;3.60;2.50;;;8.70;99.90;;;;;;5047758;28;20611;-62
2024/02/22 02:54:43;;;;;;;2.50;2.30;;;8.70;99.90;;;;;;5048079;28;20444;-63
2024/02/22 02:57:10;;;;;;;2.47;2.28;;;8.60;99.90;;;;;;5048531;28;20445;-62
2024/02/22 02:59:38;;;;;;;3.10;2.80;;;8.60;99.90;;;;;;5048151;28;20216;-62
2024/02/22 03:02:05;;;;;;;3.27;3.07;;;8.70;99.90;;;;;;5048069;28;20206;-63
2024/02/22 03:04:32;;;;;;;3.40;2.97;;;8.70;99.90;;;;;;5048258;28;20551;-63
2024/02/22 03:06:59;;;;;;;3.65;2.88;;;8.70;99.90;;;;;;5048112;28;21019;-62
2024/02/22 03:09:26;;;;;;;2.80;2.60;;;8.70;99.90;;;;;;5048281;28;20206;-63
2024/02/22 03:11:52;;;;;;;2.53;2.33;;;8.70;99.90;;;;;;5047745;28;20989;-63
2024/02/22 03:14:19;;;;;;;2.93;2.73;;;8.70;99.90;;;;;;5048096;28;20213;-63
2024/02/22 03:16:48;;;;;;;3.67;2.60;;;8.70;99.90;;;;;;5048855;28;20460;-63
2024/02/22 03:19:14;;;;;;;2.65;2.45;;;8.70;99.90;;;;;;5051867;28;20452;-63
2024/02/22 03:21:41;;;;;;;3.55;2.70;;;8.70;99.90;;;;;;5051991;28;20206;-63
2024/02/22 03:24:08;;;;;;;3.20;2.60;;;8.70;99.90;;;;;;5051946;28;20803;-63
2024/02/22 03:26:36;;;;;;;2.95;2.75;;;8.70;99.90;;;;;;5051893;28;20615;-63
2024/02/22 03:29:03;;;;;;;3.10;2.80;;;8.70;99.90;;;;;;5051869;28;20213;-63
2024/02/22 03:31:29;;;;;;;3.72;2.92;;;8.70;99.90;;;;;;5052027;28;20444;-63
2024/02/22 03:33:58;;;;;;;3.77;2.80;;;8.70;99.90;;;;;;5051229;28;20214;-62
2024/02/22 03:36:25;;;;;;;2.63;2.43;;;8.80;99.90;;;;;;5052142;28;20556;-62
2024/02/22 03:38:53;;;;;;;2.37;2.03;;;8.80;99.90;;;;;;5051992;28;20486;-63
2024/02/22 03:41:24;;;;;;;2.75;2.55;;;8.70;99.90;;;;;;5051976;28;20460;-63
2024/02/22 03:43:51;;;;;;;2.87;2.60;;;8.80;99.90;;;;;;5051207;28;20221;-63
2024/02/22 03:46:18;;;;;;;2.37;2.17;;;8.70;99.90;;;;;;5051349;28;20494;-63
2024/02/22 03:48:45;;;;;;;3.67;3.40;;;8.80;99.90;;;;;;5051575;28;20444;-63
2024/02/22 03:51:13;;;;;;;6.72;2.65;;;8.80;99.90;;;;;;5051726;28;20449;-63
2024/02/22 03:53:39;;;;;;;3.10;2.45;;;8.80;99.90;;;;;;5051041;28;20644;-63
2024/02/22 03:56:07;;;;;;;2.17;2.07;;;8.70;99.90;;;;;;5051310;28;20242;-63
2024/02/22 03:58:34;;;;;;;2.42;2.20;;;8.80;99.90;;;;;;5051417;28;20528;-63
2024/02/22 04:01:01;;;;;;;2.50;2.30;;;8.70;99.90;;;;;;5051129;28;20214;-63
2024/02/22 04:03:28;;;;;;;2.63;2.35;;;8.70;99.90;;;;;;5051105;28;20463;-63
2024/02/22 04:05:55;;;;;;;2.90;2.53;;;8.70;99.90;;;;;;5051398;28;20241;-63
2024/02/22 04:08:24;;;;;;;4.30;3.83;;;8.80;99.90;;;;;;5051540;28;20539;-63
2024/02/22 04:10:51;;;;;;;2.88;2.63;;;8.80;99.90;;;;;;5051339;28;20210;-63
2024/02/22 04:13:18;;;;;;;3.17;2.40;;;8.80;99.90;;;;;;5050750;28;20277;-63
2024/02/22 04:15:45;;;;;;;2.70;2.20;;;8.80;99.90;;;;;;5051323;28;20313;-63
2024/02/22 04:18:12;;;;;;;2.30;2.13;;;8.80;99.90;;;;;;5051111;28;20558;-63
2024/02/22 04:20:39;;;;;;;3.97;1.90;;;8.70;99.90;;;;;;5050893;28;20293;-63
2024/02/22 04:23:06;;;;;;;2.47;2.27;;;8.70;99.90;;;;;;5050367;28;20951;-63
2024/02/22 04:25:34;;;;;;;3.22;2.85;;;8.70;99.90;;;;;;5050693;28;20472;-63
2024/02/22 04:28:03;;;;;;;2.50;2.23;;;8.70;99.90;;;;;;5047546;28;20233;-63
2024/02/22 04:30:29;;;;;;;3.42;3.00;;;8.70;99.90;;;;;;5050353;28;20452;-63
2024/02/22 04:32:56;;;;;;;2.72;2.50;;;8.80;99.90;;;;;;5050428;28;20210;-63
2024/02/22 04:35:23;;;;;;;3.30;3.00;;;8.70;99.90;;;;;;5050734;28;20667;-63
2024/02/22 04:37:50;;;;;;;3.45;3.15;;;8.70;99.90;;;;;;5050676;28;20211;-63
2024/02/22 04:40:17;;;;;;;4.45;3.55;;;8.80;99.90;;;;;;5050631;28;20210;-63
2024/02/22 04:42:45;;;;;;;4.00;3.60;;;8.80;99.90;;;;;;5050181;28;20240;-63
2024/02/22 04:45:13;;;;;;;4.07;3.70;;;8.80;99.90;;;;;;5050657;28;20226;-63
2024/02/22 04:47:40;;;;;;;3.80;3.35;;;8.80;99.90;;;;;;5050723;28;20226;-63
2024/02/22 04:50:08;;;;;;;3.38;3.10;;;8.80;99.90;;;;;;5050347;28;20241;-63
2024/02/22 04:52:35;;;;;;;3.43;3.23;;;8.80;99.90;;;;;;5050357;28;20648;-63
2024/02/22 04:55:03;;;;;;;2.85;2.65;;;8.80;99.90;;;;;;5085055;22;20496;-56
2024/02/22 04:57:30;;;;;;;3.07;2.80;;;8.80;99.90;;;;;;5110803;28;20209;-56
2024/02/22 04:59:58;;;;;;;3.08;2.85;;;8.80;99.90;;;;;;5110649;28;20533;-59
2024/02/22 05:02:25;;;;;;;2.63;2.42;;;8.80;99.90;;;;;;5110365;28;20208;-59
2024/02/22 05:04:52;;;;;;;4.03;3.70;;;8.80;99.90;;;;;;5110709;28;20637;-59
2024/02/22 05:07:18;;;;;;;4.35;3.95;;;8.80;99.90;;;;;;5110484;28;20228;-58
2024/02/22 05:09:45;;;;;;;3.67;3.17;;;8.90;99.90;;;;;;5110758;28;20208;-58
2024/02/22 05:12:12;;;;;;;2.83;2.63;;;8.80;99.90;;;;;;5110224;28;20506;-59
2024/02/22 05:14:39;;;;;;;2.40;2.20;;;8.80;99.90;;;;;;5110655;28;21024;-59
2024/02/22 05:17:08;;;;;;;4.33;3.20;;;8.80;99.90;;;;;;5110907;27;21272;-59
2024/02/22 05:19:35;;;;;;;2.97;2.67;;;8.80;99.90;;;;;;5110377;28;20480;-60
2024/02/22 05:22:02;;;;;;;3.03;2.53;;;8.80;99.90;;;;;;5109999;28;20574;-59
2024/02/22 05:24:29;;;;;;;3.33;3.13;;;8.80;99.90;;;;;;5110659;28;20455;-61
2024/02/22 05:26:56;;;;;;;3.67;2.90;;;8.80;99.90;;;;;;5109819;28;20494;-60
2024/02/22 05:29:23;;;;;;;2.27;2.10;;;8.90;99.90;;;;;;5110213;28;20464;-60
2024/02/22 05:31:50;;;;;;;3.42;2.70;;;8.90;99.90;;;;;;5109361;28;20948;-58
2024/02/22 05:34:18;;;;;;;2.93;2.63;;;8.90;99.90;;;;;;5110068;28;20593;-60
2024/02/22 05:36:45;;;;;;;2.77;2.57;;;8.90;99.90;;;;;;5110079;28;20982;-59
2024/02/22 05:39:12;;;;;;;2.90;2.50;;;8.90;99.90;;;;;;5109858;27;20456;-60
2024/02/22 05:41:38;;;;;;;3.33;2.47;;;8.90;99.90;;;;;;5110103;28;20453;-61
2024/02/22 05:44:05;;;;;;;4.00;2.90;;;8.90;99.90;;;;;;5109573;28;20457;-59
2024/02/22 05:46:32;;;;;;;2.60;2.10;;;8.90;99.90;;;;;;5109831;28;20573;-60
2024/02/22 05:49:00;;;;;;;2.30;2.10;;;8.90;99.90;;;;;;5109812;28;20468;-57
2024/02/22 05:51:28;;;;;;;3.30;2.50;;;9.00;99.90;;;;;;5110083;28;20490;-60
2024/02/22 05:53:55;;;;;;;2.20;2.00;;;8.90;99.90;;;;;;5109559;28;20452;-59
2024/02/22 05:56:22;;;;;;;2.70;2.53;;;9.00;99.90;;;;;;5109569;28;20512;-59
2024/02/22 05:58:49;;;;;;;2.60;2.40;;;8.90;99.90;;;;;;5109566;28;20295;-61
2024/02/22 06:01:16;;;;;;;2.60;2.40;;;9.00;99.90;;;;;;5109517;28;20451;-60
2024/02/22 06:03:43;;;;;;;2.53;2.33;;;8.90;99.90;;;;;;5108907;28;20450;-60
2024/02/22 06:06:11;;;;;;;2.37;2.17;;;9.00;99.90;;;;;;5109770;28;20592;-59
2024/02/22 06:08:42;;;;;;;3.13;2.77;;;9.00;99.90;;;;;;5109486;28;20535;-60
2024/02/22 06:11:09;;;;;;;2.57;2.37;;;9.00;99.90;;;;;;5109573;28;21047;-59
2024/02/22 06:13:36;;;;;;;2.13;1.92;;;9.00;99.90;;;;;;5108924;28;20446;-60
2024/02/22 06:16:04;;;;;;;2.33;2.13;;;9.00;99.90;;;;;;5109249;28;20722;-59
2024/02/22 06:18:30;;;;;;;3.55;3.25;;;9.00;99.90;;;;;;5109657;28;20940;-61
2024/02/22 06:20:57;;;;;;;2.20;2.10;;;9.00;99.90;;;;;;5109179;28;20211;-59
2024/02/22 06:23:24;;;;;;;2.57;2.00;;;9.00;99.90;;;;;;5109167;28;20204;-60
2024/02/22 06:25:54;;;;;;;2.50;2.30;;;9.00;99.90;;;;;;5109263;28;20462;-58
2024/02/22 06:28:21;;;;;;;3.55;2.25;;;9.00;99.90;;;;;;5109372;28;20441;-59
2024/02/22 06:30:48;;;;;;;2.50;2.30;;;9.00;99.90;;;;;;5109048;28;20856;-58
2024/02/22 06:33:15;;;;;;;3.90;2.00;;;9.00;99.90;;;;;;5108615;28;20453;-58
2024/02/22 06:35:41;;;;;;;2.47;1.90;;;9.00;99.90;;;;;;5109112;28;20470;-60
2024/02/22 06:38:08;;;;;;;2.53;2.07;;;9.00;99.90;;;;;;5109178;28;20590;-59
2024/02/22 06:40:35;;;;;;;2.53;2.43;;;9.10;99.90;;;;;;5108862;28;20450;-57
2024/02/22 06:43:05;;;;;;;3.77;2.00;;;9.10;99.90;;;;;;5108423;28;20846;-60
2024/02/22 06:45:32;;;;;;;2.20;2.00;;;9.10;99.90;;;;;;5109135;28;20473;-60
2024/02/22 06:47:58;;;;;;;2.30;2.17;;;9.10;99.90;;;;;;5109076;28;20863;-60
2024/02/22 06:50:25;;;;;;;2.20;2.10;;;9.10;99.90;;;;;;5108986;28;20454;-59
2024/02/22 06:52:52;;;;;;;3.63;3.23;;;9.10;99.90;;;;;;5107880;28;20218;-60
2024/02/22 06:55:19;;;;;;;4.03;2.42;;;9.10;99.90;;;;;;5108866;28;20516;-60
2024/02/22 06:57:46;;;;;;;2.50;2.30;;;9.10;99.90;;;;;;5109115;28;20317;-59
2024/02/22 07:00:15;;;;;;;3.03;2.77;;;9.10;99.90;;;;;;5108839;28;20446;-58
2024/02/22 07:02:43;;;;;;;3.10;2.80;;;9.10;99.90;;;;;;5108851;28;20565;-60
2024/02/22 07:05:10;;;;;;;2.70;2.22;;;9.10;99.90;;;;;;5108952;28;20471;-58
2024/02/22 07:07:36;;;;;;;1.90;1.80;;;9.10;99.90;;;;;;5108801;28;20228;-60
2024/02/22 07:10:04;;;;;;;1.57;1.43;;;9.20;99.90;;;;;;5108573;28;20452;-59
2024/02/22 07:12:32;;;;;;;3.30;1.87;;;9.20;99.90;;;;;;5108485;28;20456;-59
2024/02/22 07:14:58;;;;;;;1.20;1.20;;;9.20;99.90;;;;;;5108787;28;20477;-59
2024/02/22 07:17:27;;;;;;;1.60;1.50;;;9.20;99.90;;;;;;5108674;28;20448;-59
2024/02/22 07:19:54;;;;;;;1.53;1.43;;;9.20;99.90;;;;;;5108621;28;20460;-59
2024/02/22 07:22:20;;;;;;;2.00;1.90;;;9.20;99.90;;;;;;5108224;28;20825;-59
2024/02/22 07:24:47;;;;;;;3.33;1.40;;;9.20;99.90;;;;;;5108478;28;20450;-60
2024/02/22 07:27:14;;;;;;;2.20;1.20;;;9.20;99.90;;;;;;5108657;28;21078;-59
2024/02/22 07:29:41;;;;;;;2.83;2.57;;;9.20;99.90;;;;;;5108676;28;20467;-58
2024/02/22 07:32:08;;;;;;;1.43;1.33;;;9.20;99.90;;;;;;5108420;28;20461;-58
2024/02/22 07:34:36;;;;;;;1.40;1.30;;;9.30;99.90;;;;;;5108475;28;20457;-59
2024/02/22 07:37:03;;;;;;;1.45;1.35;;;9.30;99.90;;;;;;5108557;28;20452;-59
2024/02/22 07:39:31;;;;;;;1.53;1.43;;;9.30;99.90;;;;;;5107195;28;20203;-59
2024/02/22 07:41:57;;;;;;;3.30;1.40;;;9.30;99.90;;;;;;5107489;28;20930;-59
2024/02/22 07:44:24;;;;;;;1.23;1.13;;;9.30;99.90;;;;;;5107985;28;20438;-59
2024/02/22 07:46:52;;;;;;;4.40;2.40;;;9.40;99.90;;;;;;5106930;28;20489;-61
2024/02/22 07:49:21;;;;;;;2.57;2.37;;;9.40;99.90;;;;;;5101559;28;20442;-60
2024/02/22 07:51:49;;;;;;;2.53;2.10;;;9.40;99.90;;;;;;5107149;28;20446;-59
2024/02/22 07:54:16;;;;;;;2.90;2.57;;;9.40;99.90;;;;;;5107845;28;20442;-60
2024/02/22 07:56:43;;;;;;;1.67;1.50;;;9.40;99.90;;;;;;5107808;28;20889;-60
2024/02/22 07:59:11;;;;;;;1.50;1.40;;;9.40;99.90;;;;;;5107890;28;20448;-58
2024/02/22 08:01:40;;;;;;;1.70;1.60;;;9.40;99.90;;;;;;5105361;28;20446;-60
2024/02/22 08:04:07;;;;;;;1.63;1.53;;;9.50;99.90;;;;;;5108770;28;20449;-60
2024/02/22 08:06:34;;;;;;;2.27;1.30;;;9.50;99.90;;;;;;5105113;27;21015;-61
2024/02/22 08:09:03;;;;;;;1.87;1.40;;;9.50;99.90;;;;;;5095140;28;20451;-59
2024/02/22 08:11:30;;;;;;;1.43;1.33;;;9.50;99.90;;;;;;5093909;28;20457;-58
2024/02/22 08:13:58;;;;;;;3.30;1.17;;;9.50;99.90;;;;;;5098930;28;20451;-60
2024/02/22 08:16:25;;;;;;;1.13;1.03;;;9.40;99.90;;;;;;5101401;28;20469;-61
2024/02/22 08:18:52;;;;;;;1.80;1.70;;;9.50;99.90;;;;;;5097364;28;20432;-57
2024/02/22 08:21:20;;;;;;;1.70;1.30;;;9.50;99.90;;;;;;5090853;28;20447;-61
2024/02/22 08:23:51;;;;;;;4.13;1.13;;;9.50;99.90;;;;;;5101922;28;20988;-60
2024/02/22 08:26:19;;;;;;;1.80;1.40;;;9.50;99.90;;;;;;5109115;28;20458;-59
2024/02/22 08:28:46;;;;;;;1.10;1.00;;;9.50;99.90;;;;;;5111177;28;20492;-59
2024/02/22 08:31:13;;;;;;;1.23;1.13;;;9.50;99.90;;;;;;5110047;27;20450;-61
2024/02/22 08:33:41;;;;;;;1.70;1.10;;;9.50;99.90;;;;;;5097782;28;20456;-58
2024/02/22 08:36:08;;;;;;;2.43;1.30;;;9.50;99.90;;;;;;5111125;28;20473;-59
2024/02/22 08:38:35;;;;;;;1.20;1.10;;;9.50;99.90;;;;;;5111111;28;20557;-61
2024/02/22 08:41:04;;;;;;;1.80;1.43;;;9.60;99.90;;;;;;5110482;28;20454;-61
2024/02/22 08:43:33;;;;;;;2.20;1.85;;;9.60;99.90;;;;;;5110078;28;20511;-61
2024/02/22 08:46:01;;;;;;;1.70;1.60;;;9.60;99.90;;;;;;5109497;27;20321;-60
2024/02/22 08:48:28;;;;;;;3.40;1.80;;;9.70;99.90;;;;;;5090324;28;20482;-59
2024/02/22 08:50:57;;;;;;;2.17;1.73;;;9.70;99.90;;;;;;5104128;28;20458;-61
2024/02/22 08:53:24;;;;;;;3.70;2.57;;;9.70;99.90;;;;;;5110311;28;20531;-60
2024/02/22 08:55:51;;;;;;;5.50;3.40;;;9.70;99.90;;;;;;5110152;28;20477;-61
2024/02/22 08:58:18;;;;;;;4.23;2.70;;;9.70;99.90;;;;;;5110459;28;20439;-60
2024/02/22 09:00:47;;;;;;;1.37;1.37;;;9.70;99.90;;;;;;5110088;28;20899;-61
2024/02/22 09:03:14;;;;;;;1.70;1.60;;;9.70;99.90;;;;;;5108779;28;20454;-61
2024/02/22 09:05:43;;;;;;;2.93;2.70;;;9.70;99.90;;;;;;5110118;28;20467;-61
2024/02/22 09:08:10;;;;;;;1.60;1.50;;;9.80;99.90;;;;;;5110426;28;20490;-59
2024/02/22 09:10:37;;;;;;;2.30;1.57;;;9.80;99.90;;;;;;5110325;28;20451;-60
2024/02/22 09:13:04;;;;;;;3.73;1.90;;;9.90;99.90;;;;;;5106554;28;21117;-59
2024/02/22 09:15:31;;;;;;;1.97;1.87;;;10.00;99.90;;;;;;5109535;28;20835;-58
2024/02/22 09:17:59;;;;;;;2.23;1.67;;;10.00;99.90;;;;;;5109839;28;20450;-61
2024/02/22 09:20:27;;;;;;;1.80;1.50;;;10.00;99.90;;;;;;5099092;28;20469;-59
2024/02/22 09:22:54;;;;;;;5.03;3.20;;;10.10;99.90;;;;;;5098643;28;21153;-61
2024/02/22 09:25:21;;;;;;;1.83;1.73;;;10.10;99.90;;;;;;5099877;28;20523;-61
2024/02/22 09:27:48;;;;;;;1.87;1.77;;;10.10;99.90;;;;;;5109037;28;20481;-61
2024/02/22 09:30:15;;;;;;;1.30;1.20;;;10.10;99.90;;;;;;5108181;28;21127;-59
2024/02/22 09:32:42;;;;;;;2.00;1.60;;;10.10;99.90;;;;;;5105125;28;20438;-60
2024/02/22 09:35:10;;;;;;;1.43;1.40;;;10.20;99.90;;;;;;5100185;28;20637;-59
2024/02/22 09:37:37;;;;;;;23.53;6.53;;;10.20;99.90;;;;;;5105912;28;20530;-60
2024/02/22 09:40:04;;;;;;;2.93;1.73;;;10.10;99.90;;;;;;5099566;28;20450;-61
2024/02/22 09:42:31;;;;;;;7.20;2.27;;;10.20;99.90;;;;;;5103425;28;20446;-60
2024/02/22 09:44:59;;;;;;;1.10;1.10;;;10.20;99.90;;;;;;5102067;28;20466;-59
2024/02/22 09:47:26;;;;;;;1.53;1.43;;;10.20;99.90;;;;;;5097600;28;20482;-61
2024/02/22 09:49:52;;;;;;;1.00;1.00;;;10.20;99.90;;;;;;5092058;28;20568;-59
2024/02/22 09:52:21;;;;;;;1.60;1.50;;;10.20;99.90;;;;;;5102743;28;20538;-61
2024/02/22 09:54:48;;;;;;;25.13;8.30;;;10.30;99.90;;;;;;5106946;28;20454;-61
2024/02/22 09:57:16;;;;;;;2.47;1.90;;;10.30;99.90;;;;;;5102510;28;20474;-60
2024/02/22 09:59:48;;;;;;;1.40;1.30;;;10.30;99.90;;;;;;5097041;28;20458;-59
2024/02/22 10:02:15;;;;;;;1.47;1.13;;;10.30;99.90;;;;;;5105315;28;20446;-60
2024/02/22 10:04:51;;;;;;;2.73;1.17;;;10.40;99.90;;;;;;5103838;28;20822;-60
2024/02/22 10:07:24;;;;;;;3.03;2.83;;;10.40;99.90;;;;;;5103331;28;20457;-61
2024/02/22 10:09:51;;;;;;;1.30;1.20;;;10.40;99.90;;;;;;5102562;28;20457;-58
2024/02/22 10:12:25;;;;;;;1.27;1.27;;;10.50;99.90;;;;;;5098475;28;20535;-60
2024/02/22 10:14:52;;;;;;;1.93;1.83;;;10.50;99.90;;;;;;5102055;28;20446;-58
2024/02/22 10:17:23;;;;;;;2.87;2.70;;;10.50;99.90;;;;;;5105139;28;20450;-59
2024/02/22 10:20:03;;;;;;;1.20;1.20;;;10.60;99.90;;;;;;5104745;28;20894;-61
2024/02/22 10:22:33;;;;;;;2.20;1.47;;;10.60;99.90;;;;;;5096487;28;20445;-60
2024/02/22 10:25:07;;;;;;;1.00;1.00;;;10.60;99.90;;;;;;5091661;28;20466;-59
2024/02/22 10:27:34;;;;;;;1.47;0.90;;;10.60;99.90;;;;;;5099303;28;20529;-61
2024/02/22 10:30:01;;;;;;;1.10;1.10;;;10.60;99.90;;;;;;5099667;28;20538;-60
2024/02/22 10:32:28;;;;;;;1.10;1.00;;;10.60;99.90;;;;;;5096735;28;20458;-60
2024/02/22 10:34:56;;;;;;;1.80;1.13;;;10.70;99.90;;;;;;5094706;28;20492;-60
2024/02/22 10:37:23;;;;;;;0.80;0.80;;;10.70;99.90;;;;;;5101600;28;20452;-61
2024/02/22 10:39:52;;;;;;;0.93;0.93;;;10.80;99.90;;;;;;5107330;28;20949;-61
2024/02/22 10:42:19;;;;;;;0.80;0.80;;;10.80;99.90;;;;;;5101439;28;20802;-61
2024/02/22 10:44:46;;;;;;;2.13;1.40;;;10.80;99.90;;;;;;5094360;28;20455;-61
2024/02/22 10:47:13;;;;;;;0.90;0.90;;;10.80;99.90;;;;;;5093737;28;20533;-60
2024/02/22 10:49:41;;;;;;;1.20;0.97;;;10.80;99.90;;;;;;5100032;28;21030;-58
2024/02/22 10:52:09;;;;;;;3.97;1.73;;;10.80;99.90;;;;;;5107654;28;20532;-60
2024/02/22 10:54:36;;;;;;;1.27;1.27;;;10.90;99.90;;;;;;5088319;28;20474;-60
2024/02/22 10:57:07;;;;;;;0.90;0.90;;;10.90;99.90;;;;;;5130092;22;20927;-63
2024/02/22 10:59:35;;;;;;;0.90;0.90;;;10.80;99.90;;;;;;5096625;28;20443;-63
2024/02/22 11:02:03;;;;;;;1.37;1.30;;;10.90;99.90;;;;;;5087732;28;20458;-63
2024/02/22 11:04:31;;;;;;;1.50;1.33;;;10.90;99.90;;;;;;5097043;28;20451;-63
2024/02/22 11:07:05;;;;;;;1.60;1.50;;;10.90;99.90;;;;;;5078535;28;20472;-63
2024/02/22 11:09:38;;;;;;;1.30;1.30;;;11.00;99.90;;;;;;5081639;28;20491;-63
2024/02/22 11:12:07;;;;;;;2.17;1.47;;;11.10;99.90;;;;;;5073363;28;20566;-63
2024/02/22 11:14:36;;;;;;;2.17;1.83;;;11.00;99.90;;;;;;5081967;28;20834;-63
2024/02/22 11:17:14;;;;;;;4.20;2.00;;;11.10;99.90;;;;;;5075207;28;20470;-63
2024/02/22 11:19:41;;;;;;;1.73;1.63;;;11.10;99.90;;;;;;5075063;28;20828;-63
2024/02/22 11:22:14;;;;;;;2.00;1.50;;;11.10;99.90;;;;;;5075699;28;20462;-64
2024/02/22 11:24:41;;;;;;;1.47;1.40;;;11.10;99.90;;;;;;5070441;28;20530;-64
2024/02/22 11:27:10;;;;;;;1.60;1.50;;;11.10;99.90;;;;;;5082586;28;20467;-63
2024/02/22 11:29:36;;;;;;;2.40;2.17;;;11.20;99.90;;;;;;5085669;28;20514;-63
2024/02/22 11:32:05;;;;;;;2.10;2.00;;;11.10;99.90;;;;;;5075460;28;20891;-64
2024/02/22 11:34:34;;;;;;;1.23;1.13;;;11.10;99.90;;;;;;5079081;28;20448;-63
2024/02/22 11:37:10;;;;;;;1.57;1.13;;;11.10;99.90;;;;;;5079142;28;20498;-63
2024/02/22 11:39:37;;;;;;;1.63;1.53;;;11.10;99.90;;;;;;5092732;28;20446;-63
2024/02/22 11:42:04;;;;;;;2.37;2.17;;;11.10;99.90;;;;;;5087624;28;20539;-63
2024/02/22 11:44:32;;;;;;;0.87;0.87;;;11.10;99.90;;;;;;5078233;28;20525;-63
2024/02/22 11:46:59;;;;;;;2.00;0.90;;;11.10;99.90;;;;;;5083747;28;20954;-63
2024/02/22 11:49:26;;;;;;;1.40;1.30;;;11.10;99.90;;;;;;5077049;28;20487;-64
2024/02/22 11:51:53;;;;;;;1.27;1.13;;;11.20;99.90;;;;;;5074973;28;20455;-63
2024/02/22 11:54:22;;;;;;;1.13;1.03;;;11.20;99.90;;;;;;5082310;28;20443;-63
2024/02/22 11:56:48;;;;;;;1.30;0.80;;;11.20;99.90;;;;;;5082591;28;20479;-64
2024/02/22 11:59:15;;;;;;;1.40;0.70;;;11.20;99.90;;;;;;5080178;28;20438;-64
2024/02/22 12:01:44;;;;;;;0.60;0.60;;;11.20;99.90;;;;;;5085977;28;20477;-64
2024/02/22 12:04:11;;;;;;;0.70;0.70;;;11.20;99.90;;;;;;5077955;28;20447;-64
2024/02/22 12:06:39;;;;;;;1.73;1.33;;;11.20;99.90;;;;;;5074034;28;20500;-63
2024/02/22 12:09:07;;;;;;;1.40;1.30;;;11.20;99.90;;;;;;5081043;28;20944;-64
2024/02/22 12:11:35;;;;;;;1.70;1.00;;;11.20;99.90;;;;;;5075540;28;20646;-64
2024/02/22 12:14:03;;;;;;;1.33;0.90;;;11.20;99.90;;;;;;5081455;28;20490;-64
2024/02/22 12:16:31;;;;;;;0.83;0.83;;;11.10;99.90;;;;;;5083226;28;20475;-64
2024/02/22 12:19:00;;;;;;;0.90;0.90;;;11.20;99.90;;;;;;5087269;28;20448;-64
2024/02/22 12:21:29;;;;;;;0.80;0.80;;;11.20;99.90;;;;;;5077384;28;20555;-64
2024/02/22 12:23:59;;;;;;;0.80;0.80;;;11.20;99.90;;;;;;5085249;28;20546;-64
2024/02/22 12:26:26;;;;;;;0.50;0.50;;;11.20;99.90;;;;;;5079379;28;20570;-64
2024/02/22 12:28:54;;;;;;;1.03;0.73;;;11.30;99.90;;;;;;5079141;28;20579;-64
2024/02/22 12:31:22;;;;;;;0.70;0.70;;;11.20;99.90;;;;;;5092904;28;20452;-64
2024/02/22 12:33:50;;;;;;;0.90;0.90;;;11.20;99.90;;;;;;5087244;28;20531;-64
2024/02/22 12:36:18;;;;;;;0.90;0.90;;;11.20;99.90;;;;;;5082830;28;20566;-63
2024/02/22 12:38:45;;;;;;;0.80;0.80;;;11.20;99.90;;;;;;5094606;28;20993;-64
2024/02/22 12:41:12;;;;;;;0.43;0.40;;;11.30;99.90;;;;;;5090406;28;20806;-64
2024/02/22 12:43:39;;;;;;;1.10;1.10;;;11.30;99.90;;;;;;5088058;28;20443;-64
2024/02/22 12:46:07;;;;;;;0.90;0.90;;;11.30;99.90;;;;;;5101382;28;20955;-64
2024/02/22 12:48:34;;;;;;;3.23;1.97;;;11.30;99.90;;;;;;5092144;28;20495;-64
2024/02/22 12:51:01;;;;;;;1.20;1.10;;;11.30;99.90;;;;;;5083622;28;20475;-63
2024/02/22 12:53:29;;;;;;;1.60;1.20;;;11.30;99.90;;;;;;5072154;28;21278;-64
2024/02/22 12:55:56;;;;;;;1.60;1.50;;;11.30;99.90;;;;;;5083270;28;20481;-64